sensor_id;sensor_type;location;lat;lon;timestamp;P1;durP1;ratioP1;P2;durP2;ratioP2
59408;SDS011;45213;32.654;-115.458;2022-09-09T00:04:03;4.47;;;1.60;;
59408;SDS011;45213;32.654;-115.458;2022-09-09T00:06:55;5.15;;;2.13;;
59408;SDS011;45213;32.654;-115.458;2022-09-09T00:12:34;4.70;;;1.80;;
59408;SDS011;45213;32.654;-115.458;2022-09-09T00:15:20;7.50;;;1.70;;
59408;SDS011;45213;32.654;-115.458;2022-09-09T00:20:55;7.28;;;1.90;;
59408;SDS011;45213;32.654;-115.458;2022-09-09T00:23:38;6.68;;;1.35;;
59408;SDS011;45213;32.654;-115.458;2022-09-09T00:29:22;3.10;;;1.40;;
59408;SDS011;45213;32.654;-115.458;2022-09-09T00:32:00;5.63;;;1.75;;
59408;SDS011;45213;32.654;-115.458;2022-09-09T00:34:37;6.97;;;1.90;;
59408;SDS011;45213;32.654;-115.458;2022-09-09T00:37:10;25.88;;;3.20;;
59408;SDS011;45213;32.654;-115.458;2022-09-09T00:39:39;7.70;;;2.08;;
59408;SDS011;45213;32.654;-115.458;2022-09-09T00:42:25;5.88;;;1.90;;
59408;SDS011;45213;32.654;-115.458;2022-09-09T00:58:34;9.50;;;2.00;;
59408;SDS011;45213;32.654;-115.458;2022-09-09T01:03:35;11.32;;;2.60;;
59408;SDS011;45213;32.654;-115.458;2022-09-09T01:16:44;10.90;;;3.22;;
59408;SDS011;45213;32.654;-115.458;2022-09-09T01:19:17;10.88;;;3.45;;
59408;SDS011;45213;32.654;-115.458;2022-09-09T01:21:57;8.77;;;3.03;;
59408;SDS011;45213;32.654;-115.458;2022-09-09T01:27:53;12.38;;;3.38;;
59408;SDS011;45213;32.654;-115.458;2022-09-09T01:30:27;11.80;;;3.30;;
59408;SDS011;45213;32.654;-115.458;2022-09-09T01:32:57;9.20;;;2.97;;
59408;SDS011;45213;32.654;-115.458;2022-09-09T01:37:53;9.38;;;2.20;;
59408;SDS011;45213;32.654;-115.458;2022-09-09T01:40:20;10.20;;;2.20;;
59408;SDS011;45213;32.654;-115.458;2022-09-09T01:42:48;13.23;;;2.40;;
59408;SDS011;45213;32.654;-115.458;2022-09-09T01:45:15;11.18;;;2.60;;
59408;SDS011;45213;32.654;-115.458;2022-09-09T01:47:44;12.50;;;2.40;;
59408;SDS011;45213;32.654;-115.458;2022-09-09T01:50:44;8.02;;;2.00;;
59408;SDS011;45213;32.654;-115.458;2022-09-09T01:53:12;7.05;;;1.90;;
59408;SDS011;45213;32.654;-115.458;2022-09-09T02:03:38;12.90;;;2.70;;
59408;SDS011;45213;32.654;-115.458;2022-09-09T02:08:50;9.70;;;2.00;;
59408;SDS011;45213;32.654;-115.458;2022-09-09T02:11:25;16.95;;;2.33;;
59408;SDS011;45213;32.654;-115.458;2022-09-09T02:14:04;12.73;;;2.67;;
59408;SDS011;45213;32.654;-115.458;2022-09-09T02:16:40;10.70;;;2.60;;
59408;SDS011;45213;32.654;-115.458;2022-09-09T02:19:23;7.35;;;2.00;;
59408;SDS011;45213;32.654;-115.458;2022-09-09T02:22:02;16.08;;;2.40;;
59408;SDS011;45213;32.654;-115.458;2022-09-09T02:24:30;10.68;;;2.53;;
59408;SDS011;45213;32.654;-115.458;2022-09-09T02:27:17;9.55;;;2.20;;
59408;SDS011;45213;32.654;-115.458;2022-09-09T02:29:47;10.75;;;2.55;;
59408;SDS011;45213;32.654;-115.458;2022-09-09T02:32:23;7.65;;;2.60;;
59408;SDS011;45213;32.654;-115.458;2022-09-09T02:35:02;11.70;;;2.35;;
59408;SDS011;45213;32.654;-115.458;2022-09-09T02:37:41;15.60;;;2.75;;
59408;SDS011;45213;32.654;-115.458;2022-09-09T02:40:15;11.07;;;2.30;;
59408;SDS011;45213;32.654;-115.458;2022-09-09T02:42:46;11.38;;;2.80;;
59408;SDS011;45213;32.654;-115.458;2022-09-09T02:45:18;10.25;;;2.53;;
59408;SDS011;45213;32.654;-115.458;2022-09-09T02:47:59;8.20;;;3.60;;
59408;SDS011;45213;32.654;-115.458;2022-09-09T02:53:57;13.63;;;4.45;;
59408;SDS011;45213;32.654;-115.458;2022-09-09T02:56:33;18.27;;;4.10;;
59408;SDS011;45213;32.654;-115.458;2022-09-09T02:59:07;8.75;;;3.92;;
59408;SDS011;45213;32.654;-115.458;2022-09-09T03:01:35;8.18;;;3.30;;
59408;SDS011;45213;32.654;-115.458;2022-09-09T03:04:03;11.60;;;3.58;;
59408;SDS011;45213;32.654;-115.458;2022-09-09T03:06:32;12.90;;;3.22;;
59408;SDS011;45213;32.654;-115.458;2022-09-09T03:09:08;13.00;;;3.50;;
59408;SDS011;45213;32.654;-115.458;2022-09-09T03:11:37;14.38;;;3.45;;
59408;SDS011;45213;32.654;-115.458;2022-09-09T03:14:07;9.77;;;2.93;;
59408;SDS011;45213;32.654;-115.458;2022-09-09T03:16:35;13.23;;;2.92;;
59408;SDS011;45213;32.654;-115.458;2022-09-09T03:19:02;14.98;;;2.80;;
59408;SDS011;45213;32.654;-115.458;2022-09-09T03:21:30;10.90;;;2.85;;
59408;SDS011;45213;32.654;-115.458;2022-09-09T03:23:56;7.68;;;2.30;;
59408;SDS011;45213;32.654;-115.458;2022-09-09T03:26:23;9.48;;;2.88;;
59408;SDS011;45213;32.654;-115.458;2022-09-09T03:28:50;10.13;;;2.33;;
59408;SDS011;45213;32.654;-115.458;2022-09-09T03:31:29;9.02;;;2.53;;
59408;SDS011;45213;32.654;-115.458;2022-09-09T03:33:57;13.35;;;2.92;;
59408;SDS011;45213;32.654;-115.458;2022-09-09T03:36:25;8.00;;;2.63;;
59408;SDS011;45213;32.654;-115.458;2022-09-09T03:38:52;6.32;;;2.63;;
59408;SDS011;45213;32.654;-115.458;2022-09-09T03:41:25;12.57;;;3.03;;
59408;SDS011;45213;32.654;-115.458;2022-09-09T03:43:52;15.40;;;3.10;;
59408;SDS011;45213;32.654;-115.458;2022-09-09T03:46:22;14.50;;;2.50;;
59408;SDS011;45213;32.654;-115.458;2022-09-09T03:48:50;10.85;;;3.00;;
59408;SDS011;45213;32.654;-115.458;2022-09-09T03:51:20;5.50;;;2.20;;
59408;SDS011;45213;32.654;-115.458;2022-09-09T03:53:48;5.97;;;1.85;;
59408;SDS011;45213;32.654;-115.458;2022-09-09T03:56:14;13.18;;;2.65;;
59408;SDS011;45213;32.654;-115.458;2022-09-09T03:58:41;11.43;;;2.70;;
59408;SDS011;45213;32.654;-115.458;2022-09-09T04:01:11;10.63;;;2.58;;
59408;SDS011;45213;32.654;-115.458;2022-09-09T04:03:40;11.93;;;2.65;;
59408;SDS011;45213;32.654;-115.458;2022-09-09T04:06:08;6.80;;;2.65;;
59408;SDS011;45213;32.654;-115.458;2022-09-09T04:08:37;12.35;;;3.08;;
59408;SDS011;45213;32.654;-115.458;2022-09-09T04:11:05;7.25;;;2.40;;
59408;SDS011;45213;32.654;-115.458;2022-09-09T04:13:34;12.73;;;2.65;;
59408;SDS011;45213;32.654;-115.458;2022-09-09T04:16:09;14.13;;;2.25;;
59408;SDS011;45213;32.654;-115.458;2022-09-09T04:18:37;10.15;;;2.80;;
59408;SDS011;45213;32.654;-115.458;2022-09-09T04:21:04;7.35;;;2.42;;
59408;SDS011;45213;32.654;-115.458;2022-09-09T04:23:33;13.68;;;2.67;;
59408;SDS011;45213;32.654;-115.458;2022-09-09T04:26:01;6.53;;;2.50;;
59408;SDS011;45213;32.654;-115.458;2022-09-09T04:28:38;13.80;;;2.35;;
59408;SDS011;45213;32.654;-115.458;2022-09-09T04:31:21;4.57;;;2.13;;
59408;SDS011;45213;32.654;-115.458;2022-09-09T04:33:52;11.18;;;2.63;;
59408;SDS011;45213;32.654;-115.458;2022-09-09T04:36:20;6.45;;;2.20;;
59408;SDS011;45213;32.654;-115.458;2022-09-09T04:38:49;10.55;;;2.25;;
59408;SDS011;45213;32.654;-115.458;2022-09-09T04:41:16;9.60;;;2.08;;
59408;SDS011;45213;32.654;-115.458;2022-09-09T04:43:46;11.88;;;2.13;;
59408;SDS011;45213;32.654;-115.458;2022-09-09T04:46:15;5.90;;;1.88;;
59408;SDS011;45213;32.654;-115.458;2022-09-09T04:48:47;7.60;;;1.88;;
59408;SDS011;45213;32.654;-115.458;2022-09-09T04:51:15;9.00;;;2.00;;
59408;SDS011;45213;32.654;-115.458;2022-09-09T04:53:47;5.28;;;1.75;;
59408;SDS011;45213;32.654;-115.458;2022-09-09T04:56:25;4.78;;;1.92;;
59408;SDS011;45213;32.654;-115.458;2022-09-09T04:58:56;6.40;;;1.90;;
59408;SDS011;45213;32.654;-115.458;2022-09-09T05:01:33;9.85;;;1.80;;
59408;SDS011;45213;32.654;-115.458;2022-09-09T05:04:03;5.22;;;1.90;;
59408;SDS011;45213;32.654;-115.458;2022-09-09T05:06:32;6.38;;;1.73;;
59408;SDS011;45213;32.654;-115.458;2022-09-09T05:11:51;7.78;;;2.45;;
59408;SDS011;45213;32.654;-115.458;2022-09-09T05:14:35;6.93;;;2.30;;
59408;SDS011;45213;32.654;-115.458;2022-09-09T05:17:04;10.80;;;3.70;;
59408;SDS011;45213;32.654;-115.458;2022-09-09T05:19:33;8.38;;;3.45;;
59408;SDS011;45213;32.654;-115.458;2022-09-09T05:22:01;9.18;;;3.28;;
59408;SDS011;45213;32.654;-115.458;2022-09-09T05:24:35;7.97;;;2.85;;
59408;SDS011;45213;32.654;-115.458;2022-09-09T05:27:03;9.43;;;2.90;;
59408;SDS011;45213;32.654;-115.458;2022-09-09T05:29:38;7.13;;;2.67;;
59408;SDS011;45213;32.654;-115.458;2022-09-09T05:32:08;9.32;;;2.50;;
59408;SDS011;45213;32.654;-115.458;2022-09-09T05:34:35;9.10;;;2.30;;
59408;SDS011;45213;32.654;-115.458;2022-09-09T05:37:04;8.50;;;2.38;;
59408;SDS011;45213;32.654;-115.458;2022-09-09T05:39:32;8.05;;;2.53;;
59408;SDS011;45213;32.654;-115.458;2022-09-09T05:41:59;5.38;;;2.30;;
59408;SDS011;45213;32.654;-115.458;2022-09-09T05:44:28;9.05;;;2.50;;
59408;SDS011;45213;32.654;-115.458;2022-09-09T05:46:55;5.35;;;2.45;;
59408;SDS011;45213;32.654;-115.458;2022-09-09T05:49:23;6.78;;;1.70;;
59408;SDS011;45213;32.654;-115.458;2022-09-09T05:51:49;4.80;;;1.50;;
59408;SDS011;45213;32.654;-115.458;2022-09-09T05:54:18;7.35;;;2.17;;
59408;SDS011;45213;32.654;-115.458;2022-09-09T05:56:49;4.60;;;1.75;;
59408;SDS011;45213;32.654;-115.458;2022-09-09T05:59:16;8.73;;;1.88;;
59408;SDS011;45213;32.654;-115.458;2022-09-09T06:01:44;4.13;;;1.40;;
59408;SDS011;45213;32.654;-115.458;2022-09-09T06:04:21;8.23;;;1.90;;
59408;SDS011;45213;32.654;-115.458;2022-09-09T06:06:48;5.80;;;1.60;;
59408;SDS011;45213;32.654;-115.458;2022-09-09T06:09:18;5.20;;;1.50;;
59408;SDS011;45213;32.654;-115.458;2022-09-09T06:11:44;8.50;;;2.42;;
59408;SDS011;45213;32.654;-115.458;2022-09-09T06:14:14;7.85;;;1.75;;
59408;SDS011;45213;32.654;-115.458;2022-09-09T06:16:46;4.53;;;1.40;;
59408;SDS011;45213;32.654;-115.458;2022-09-09T06:19:19;7.13;;;1.50;;
59408;SDS011;45213;32.654;-115.458;2022-09-09T06:21:47;6.72;;;1.77;;
59408;SDS011;45213;32.654;-115.458;2022-09-09T06:24:15;7.63;;;1.60;;
59408;SDS011;45213;32.654;-115.458;2022-09-09T06:26:43;3.67;;;1.15;;
59408;SDS011;45213;32.654;-115.458;2022-09-09T06:29:18;6.97;;;1.45;;
59408;SDS011;45213;32.654;-115.458;2022-09-09T06:31:45;8.75;;;1.30;;
59408;SDS011;45213;32.654;-115.458;2022-09-09T06:34:19;7.50;;;1.42;;
59408;SDS011;45213;32.654;-115.458;2022-09-09T06:36:49;5.15;;;1.35;;
59408;SDS011;45213;32.654;-115.458;2022-09-09T06:39:17;9.27;;;1.70;;
59408;SDS011;45213;32.654;-115.458;2022-09-09T06:41:45;5.03;;;1.20;;
59408;SDS011;45213;32.654;-115.458;2022-09-09T06:44:34;7.75;;;1.27;;
59408;SDS011;45213;32.654;-115.458;2022-09-09T06:47:05;2.95;;;1.00;;
59408;SDS011;45213;32.654;-115.458;2022-09-09T06:49:32;10.98;;;1.40;;
59408;SDS011;45213;32.654;-115.458;2022-09-09T06:52:04;18.65;;;2.85;;
59408;SDS011;45213;32.654;-115.458;2022-09-09T06:54:31;10.93;;;1.30;;
59408;SDS011;45213;32.654;-115.458;2022-09-09T06:56:58;16.80;;;1.80;;
59408;SDS011;45213;32.654;-115.458;2022-09-09T06:59:26;7.93;;;1.15;;
59408;SDS011;45213;32.654;-115.458;2022-09-09T07:01:54;31.58;;;2.47;;
59408;SDS011;45213;32.654;-115.458;2022-09-09T07:04:22;7.22;;;0.80;;
59408;SDS011;45213;32.654;-115.458;2022-09-09T07:06:48;8.90;;;1.65;;
59408;SDS011;45213;32.654;-115.458;2022-09-09T07:09:20;10.30;;;1.00;;
59408;SDS011;45213;32.654;-115.458;2022-09-09T07:11:49;8.48;;;1.20;;
59408;SDS011;45213;32.654;-115.458;2022-09-09T07:14:22;8.38;;;1.40;;
59408;SDS011;45213;32.654;-115.458;2022-09-09T07:16:55;6.20;;;0.95;;
59408;SDS011;45213;32.654;-115.458;2022-09-09T07:19:22;8.32;;;1.13;;
59408;SDS011;45213;32.654;-115.458;2022-09-09T07:21:51;15.45;;;1.77;;
59408;SDS011;45213;32.654;-115.458;2022-09-09T07:24:21;3.38;;;0.70;;
59408;SDS011;45213;32.654;-115.458;2022-09-09T07:26:48;6.40;;;0.70;;
59408;SDS011;45213;32.654;-115.458;2022-09-09T07:29:15;11.35;;;1.60;;
59408;SDS011;45213;32.654;-115.458;2022-09-09T07:31:44;7.85;;;1.33;;
59408;SDS011;45213;32.654;-115.458;2022-09-09T07:34:14;7.72;;;1.27;;
59408;SDS011;45213;32.654;-115.458;2022-09-09T07:36:41;16.85;;;2.08;;
59408;SDS011;45213;32.654;-115.458;2022-09-09T07:39:11;17.60;;;2.25;;
59408;SDS011;45213;32.654;-115.458;2022-09-09T07:41:44;22.98;;;2.65;;
59408;SDS011;45213;32.654;-115.458;2022-09-09T07:44:16;17.58;;;1.83;;
59408;SDS011;45213;32.654;-115.458;2022-09-09T07:46:50;8.00;;;1.48;;
59408;SDS011;45213;32.654;-115.458;2022-09-09T07:49:22;10.70;;;1.40;;
59408;SDS011;45213;32.654;-115.458;2022-09-09T07:51:49;10.02;;;1.20;;
59408;SDS011;45213;32.654;-115.458;2022-09-09T07:54:18;11.43;;;1.55;;
59408;SDS011;45213;32.654;-115.458;2022-09-09T07:56:48;13.38;;;2.13;;
59408;SDS011;45213;32.654;-115.458;2022-09-09T07:59:16;11.55;;;2.17;;
59408;SDS011;45213;32.654;-115.458;2022-09-09T08:01:47;12.80;;;2.07;;
59408;SDS011;45213;32.654;-115.458;2022-09-09T08:04:20;12.95;;;2.03;;
59408;SDS011;45213;32.654;-115.458;2022-09-09T08:06:50;15.10;;;1.42;;
59408;SDS011;45213;32.654;-115.458;2022-09-09T08:09:26;14.15;;;1.60;;
59408;SDS011;45213;32.654;-115.458;2022-09-09T08:12:09;12.77;;;1.50;;
59408;SDS011;45213;32.654;-115.458;2022-09-09T08:14:38;8.95;;;1.63;;
59408;SDS011;45213;32.654;-115.458;2022-09-09T08:17:05;13.27;;;1.73;;
59408;SDS011;45213;32.654;-115.458;2022-09-09T08:19:33;15.25;;;1.70;;
59408;SDS011;45213;32.654;-115.458;2022-09-09T08:22:07;12.55;;;2.00;;
59408;SDS011;45213;32.654;-115.458;2022-09-09T08:24:37;14.85;;;2.28;;
59408;SDS011;45213;32.654;-115.458;2022-09-09T08:27:05;21.90;;;3.13;;
59408;SDS011;45213;32.654;-115.458;2022-09-09T08:29:32;17.05;;;2.10;;
59408;SDS011;45213;32.654;-115.458;2022-09-09T08:31:59;20.95;;;2.70;;
59408;SDS011;45213;32.654;-115.458;2022-09-09T08:34:27;12.45;;;1.80;;
59408;SDS011;45213;32.654;-115.458;2022-09-09T08:36:58;15.98;;;2.00;;
59408;SDS011;45213;32.654;-115.458;2022-09-09T08:39:33;10.43;;;2.45;;
59408;SDS011;45213;32.654;-115.458;2022-09-09T08:49:58;7.20;;;1.48;;
59408;SDS011;45213;32.654;-115.458;2022-09-09T08:52:47;10.40;;;1.73;;
59408;SDS011;45213;32.654;-115.458;2022-09-09T08:57:58;9.30;;;1.42;;
59408;SDS011;45213;32.654;-115.458;2022-09-09T09:00:41;13.07;;;1.42;;
59408;SDS011;45213;32.654;-115.458;2022-09-09T09:06:13;6.40;;;1.45;;
59408;SDS011;45213;32.654;-115.458;2022-09-09T09:11:49;10.00;;;1.38;;
59408;SDS011;45213;32.654;-115.458;2022-09-09T09:14:30;7.43;;;1.48;;
59408;SDS011;45213;32.654;-115.458;2022-09-09T09:17:04;8.02;;;1.40;;
59408;SDS011;45213;32.654;-115.458;2022-09-09T09:19:35;7.53;;;1.23;;
59408;SDS011;45213;32.654;-115.458;2022-09-09T09:22:14;7.55;;;1.63;;
59408;SDS011;45213;32.654;-115.458;2022-09-09T09:27:32;7.80;;;1.50;;
59408;SDS011;45213;32.654;-115.458;2022-09-09T09:30:17;5.80;;;1.27;;
59408;SDS011;45213;32.654;-115.458;2022-09-09T09:32:51;8.90;;;1.63;;
59408;SDS011;45213;32.654;-115.458;2022-09-09T09:35:27;4.68;;;0.93;;
59408;SDS011;45213;32.654;-115.458;2022-09-09T09:37:55;5.57;;;1.10;;
59408;SDS011;45213;32.654;-115.458;2022-09-09T09:40:22;5.15;;;0.98;;
59408;SDS011;45213;32.654;-115.458;2022-09-09T09:42:49;6.43;;;1.17;;
59408;SDS011;45213;32.654;-115.458;2022-09-09T09:48:00;5.97;;;1.45;;
59408;SDS011;45213;32.654;-115.458;2022-09-09T09:50:29;8.57;;;0.90;;
59408;SDS011;45213;32.654;-115.458;2022-09-09T09:52:58;5.53;;;1.05;;
59408;SDS011;45213;32.654;-115.458;2022-09-09T09:55:31;3.20;;;1.00;;
59408;SDS011;45213;32.654;-115.458;2022-09-09T09:58:02;5.20;;;0.90;;
59408;SDS011;45213;32.654;-115.458;2022-09-09T10:00:51;4.78;;;0.98;;
59408;SDS011;45213;32.654;-115.458;2022-09-09T10:03:24;7.63;;;1.35;;
59408;SDS011;45213;32.654;-115.458;2022-09-09T10:05:59;7.15;;;1.27;;
59408;SDS011;45213;32.654;-115.458;2022-09-09T10:08:27;5.47;;;1.10;;
59408;SDS011;45213;32.654;-115.458;2022-09-09T10:19:03;6.30;;;1.42;;
59408;SDS011;45213;32.654;-115.458;2022-09-09T10:26:47;5.78;;;1.23;;
59408;SDS011;45213;32.654;-115.458;2022-09-09T10:37:49;5.65;;;1.15;;
59408;SDS011;45213;32.654;-115.458;2022-09-09T10:43:20;4.38;;;1.00;;
59408;SDS011;45213;32.654;-115.458;2022-09-09T10:46:04;4.68;;;1.20;;
59408;SDS011;45213;32.654;-115.458;2022-09-09T10:48:42;5.80;;;0.98;;
59408;SDS011;45213;32.654;-115.458;2022-09-09T10:57:08;8.20;;;1.20;;
59408;SDS011;45213;32.654;-115.458;2022-09-09T10:59:41;9.23;;;1.42;;
59408;SDS011;45213;32.654;-115.458;2022-09-09T11:04:53;5.25;;;1.02;;
59408;SDS011;45213;32.654;-115.458;2022-09-09T11:07:29;20.80;;;2.38;;
59408;SDS011;45213;32.654;-115.458;2022-09-09T11:10:12;13.18;;;1.90;;
59408;SDS011;45213;32.654;-115.458;2022-09-09T11:12:59;6.90;;;1.10;;
59408;SDS011;45213;32.654;-115.458;2022-09-09T11:15:34;12.07;;;1.45;;
59408;SDS011;45213;32.654;-115.458;2022-09-09T11:18:08;41.00;;;3.35;;
59408;SDS011;45213;32.654;-115.458;2022-09-09T11:20:44;11.77;;;1.20;;
59408;SDS011;45213;32.654;-115.458;2022-09-09T11:26:41;13.80;;;1.20;;
59408;SDS011;45213;32.654;-115.458;2022-09-09T11:32:03;5.90;;;1.08;;
59408;SDS011;45213;32.654;-115.458;2022-09-09T11:37:55;7.25;;;1.30;;
59408;SDS011;45213;32.654;-115.458;2022-09-09T11:40:40;6.15;;;1.05;;
59408;SDS011;45213;32.654;-115.458;2022-09-09T11:43:15;11.10;;;1.58;;
59408;SDS011;45213;32.654;-115.458;2022-09-09T11:45:53;10.52;;;1.67;;
59408;SDS011;45213;32.654;-115.458;2022-09-09T11:48:40;13.02;;;1.85;;
59408;SDS011;45213;32.654;-115.458;2022-09-09T11:51:13;9.02;;;1.17;;
59408;SDS011;45213;32.654;-115.458;2022-09-09T11:54:02;7.63;;;1.08;;
59408;SDS011;45213;32.654;-115.458;2022-09-09T11:56:54;13.55;;;1.60;;
59408;SDS011;45213;32.654;-115.458;2022-09-09T11:59:23;8.75;;;1.58;;
59408;SDS011;45213;32.654;-115.458;2022-09-09T12:07:02;13.57;;;1.50;;
59408;SDS011;45213;32.654;-115.458;2022-09-09T12:14:42;11.20;;;1.42;;
59408;SDS011;45213;32.654;-115.458;2022-09-09T12:17:25;8.00;;;1.35;;
59408;SDS011;45213;32.654;-115.458;2022-09-09T12:20:01;11.70;;;1.73;;
59408;SDS011;45213;32.654;-115.458;2022-09-09T12:30:49;8.80;;;1.27;;
59408;SDS011;45213;32.654;-115.458;2022-09-09T12:33:21;9.43;;;1.50;;
59408;SDS011;45213;32.654;-115.458;2022-09-09T12:35:51;5.95;;;1.00;;
59408;SDS011;45213;32.654;-115.458;2022-09-09T12:38:29;9.07;;;1.33;;
59408;SDS011;45213;32.654;-115.458;2022-09-09T12:41:01;6.93;;;0.80;;
59408;SDS011;45213;32.654;-115.458;2022-09-09T12:43:29;11.77;;;1.52;;
59408;SDS011;45213;32.654;-115.458;2022-09-09T12:46:00;11.30;;;1.58;;
59408;SDS011;45213;32.654;-115.458;2022-09-09T12:48:39;8.07;;;1.10;;
59408;SDS011;45213;32.654;-115.458;2022-09-09T12:51:23;7.60;;;1.43;;
59408;SDS011;45213;32.654;-115.458;2022-09-09T12:53:53;9.98;;;1.35;;
59408;SDS011;45213;32.654;-115.458;2022-09-09T12:56:21;9.30;;;1.20;;
59408;SDS011;45213;32.654;-115.458;2022-09-09T12:58:58;7.38;;;1.52;;
59408;SDS011;45213;32.654;-115.458;2022-09-09T13:01:27;8.80;;;1.23;;
59408;SDS011;45213;32.654;-115.458;2022-09-09T13:03:55;10.32;;;1.65;;
59408;SDS011;45213;32.654;-115.458;2022-09-09T13:06:26;8.70;;;1.40;;
59408;SDS011;45213;32.654;-115.458;2022-09-09T13:08:55;6.32;;;1.30;;
59408;SDS011;45213;32.654;-115.458;2022-09-09T13:11:28;6.95;;;1.35;;
59408;SDS011;45213;32.654;-115.458;2022-09-09T13:14:02;6.53;;;1.20;;
59408;SDS011;45213;32.654;-115.458;2022-09-09T13:16:30;10.43;;;1.92;;
59408;SDS011;45213;32.654;-115.458;2022-09-09T13:18:59;10.00;;;1.35;;
59408;SDS011;45213;32.654;-115.458;2022-09-09T13:21:39;8.80;;;1.42;;
59408;SDS011;45213;32.654;-115.458;2022-09-09T13:24:07;6.30;;;1.67;;
59408;SDS011;45213;32.654;-115.458;2022-09-09T13:27:28;7.10;;;1.52;;
59408;SDS011;45213;32.654;-115.458;2022-09-09T13:29:57;9.93;;;1.90;;
59408;SDS011;45213;32.654;-115.458;2022-09-09T13:32:24;6.18;;;1.80;;
59408;SDS011;45213;32.654;-115.458;2022-09-09T13:34:58;8.85;;;1.75;;
59408;SDS011;45213;32.654;-115.458;2022-09-09T13:37:31;4.50;;;1.55;;
59408;SDS011;45213;32.654;-115.458;2022-09-09T13:40:00;9.32;;;2.40;;
59408;SDS011;45213;32.654;-115.458;2022-09-09T13:42:29;10.30;;;1.70;;
59408;SDS011;45213;32.654;-115.458;2022-09-09T13:45:00;7.60;;;1.65;;
59408;SDS011;45213;32.654;-115.458;2022-09-09T13:47:36;8.98;;;1.80;;
59408;SDS011;45213;32.654;-115.458;2022-09-09T13:50:15;6.20;;;1.45;;
59408;SDS011;45213;32.654;-115.458;2022-09-09T13:52:47;13.23;;;2.15;;
59408;SDS011;45213;32.654;-115.458;2022-09-09T13:55:16;12.60;;;2.00;;
59408;SDS011;45213;32.654;-115.458;2022-09-09T13:57:56;13.48;;;2.22;;
59408;SDS011;45213;32.654;-115.458;2022-09-09T14:00:26;5.70;;;1.40;;
59408;SDS011;45213;32.654;-115.458;2022-09-09T14:02:56;5.78;;;1.90;;
59408;SDS011;45213;32.654;-115.458;2022-09-09T14:05:22;7.75;;;1.90;;
59408;SDS011;45213;32.654;-115.458;2022-09-09T14:07:49;5.63;;;1.30;;
59408;SDS011;45213;32.654;-115.458;2022-09-09T14:10:16;6.32;;;1.40;;
59408;SDS011;45213;32.654;-115.458;2022-09-09T14:12:43;8.50;;;1.73;;
59408;SDS011;45213;32.654;-115.458;2022-09-09T14:15:10;7.47;;;1.23;;
59408;SDS011;45213;32.654;-115.458;2022-09-09T14:17:38;6.20;;;1.30;;
59408;SDS011;45213;32.654;-115.458;2022-09-09T14:20:06;5.00;;;1.00;;
59408;SDS011;45213;32.654;-115.458;2022-09-09T14:22:35;5.97;;;1.60;;
59408;SDS011;45213;32.654;-115.458;2022-09-09T14:25:02;4.18;;;1.27;;
59408;SDS011;45213;32.654;-115.458;2022-09-09T14:27:33;8.23;;;2.55;;
59408;SDS011;45213;32.654;-115.458;2022-09-09T14:30:00;8.18;;;1.33;;
59408;SDS011;45213;32.654;-115.458;2022-09-09T14:32:27;3.30;;;1.08;;
59408;SDS011;45213;32.654;-115.458;2022-09-09T14:34:54;4.50;;;1.10;;
59408;SDS011;45213;32.654;-115.458;2022-09-09T14:37:21;5.68;;;1.20;;
59408;SDS011;45213;32.654;-115.458;2022-09-09T14:39:48;3.60;;;0.90;;
59408;SDS011;45213;32.654;-115.458;2022-09-09T14:42:16;5.35;;;1.67;;
59408;SDS011;45213;32.654;-115.458;2022-09-09T14:44:43;4.25;;;1.20;;
59408;SDS011;45213;32.654;-115.458;2022-09-09T14:47:09;4.75;;;1.42;;
59408;SDS011;45213;32.654;-115.458;2022-09-09T14:49:36;3.58;;;1.10;;
59408;SDS011;45213;32.654;-115.458;2022-09-09T14:52:03;6.30;;;1.42;;
59408;SDS011;45213;32.654;-115.458;2022-09-09T14:54:31;3.50;;;1.20;;
59408;SDS011;45213;32.654;-115.458;2022-09-09T14:56:58;3.60;;;1.20;;
59408;SDS011;45213;32.654;-115.458;2022-09-09T14:59:24;3.30;;;1.20;;
59408;SDS011;45213;32.654;-115.458;2022-09-09T15:01:52;4.97;;;1.30;;
59408;SDS011;45213;32.654;-115.458;2022-09-09T15:04:18;3.72;;;1.25;;
59408;SDS011;45213;32.654;-115.458;2022-09-09T15:06:46;6.47;;;1.55;;
59408;SDS011;45213;32.654;-115.458;2022-09-09T15:09:14;5.15;;;1.63;;
59408;SDS011;45213;32.654;-115.458;2022-09-09T15:11:41;9.48;;;1.77;;
59408;SDS011;45213;32.654;-115.458;2022-09-09T15:14:12;5.18;;;1.38;;
59408;SDS011;45213;32.654;-115.458;2022-09-09T15:16:39;5.97;;;1.30;;
59408;SDS011;45213;32.654;-115.458;2022-09-09T15:19:06;5.10;;;1.58;;
59408;SDS011;45213;32.654;-115.458;2022-09-09T15:21:34;5.63;;;1.20;;
59408;SDS011;45213;32.654;-115.458;2022-09-09T15:24:08;3.67;;;1.10;;
59408;SDS011;45213;32.654;-115.458;2022-09-09T15:26:35;6.78;;;1.27;;
59408;SDS011;45213;32.654;-115.458;2022-09-09T15:29:07;5.30;;;1.23;;
59408;SDS011;45213;32.654;-115.458;2022-09-09T15:31:34;5.80;;;1.15;;
59408;SDS011;45213;32.654;-115.458;2022-09-09T15:34:04;3.67;;;1.08;;
59408;SDS011;45213;32.654;-115.458;2022-09-09T15:36:33;6.35;;;1.20;;
59408;SDS011;45213;32.654;-115.458;2022-09-09T15:39:01;5.03;;;1.40;;
59408;SDS011;45213;32.654;-115.458;2022-09-09T15:41:30;7.65;;;1.98;;
59408;SDS011;45213;32.654;-115.458;2022-09-09T15:43:57;5.28;;;1.40;;
59408;SDS011;45213;32.654;-115.458;2022-09-09T15:48:57;4.97;;;1.30;;
59408;SDS011;45213;32.654;-115.458;2022-09-09T15:51:32;5.25;;;1.35;;
59408;SDS011;45213;32.654;-115.458;2022-09-09T15:54:08;6.78;;;1.20;;
59408;SDS011;45213;32.654;-115.458;2022-09-09T15:56:44;4.32;;;1.58;;
59408;SDS011;45213;32.654;-115.458;2022-09-09T15:59:12;5.53;;;1.45;;
59408;SDS011;45213;32.654;-115.458;2022-09-09T16:01:42;4.97;;;1.52;;
59408;SDS011;45213;32.654;-115.458;2022-09-09T16:04:14;4.25;;;1.50;;
59408;SDS011;45213;32.654;-115.458;2022-09-09T16:06:45;5.38;;;1.52;;
59408;SDS011;45213;32.654;-115.458;2022-09-09T16:09:12;6.28;;;1.55;;
59408;SDS011;45213;32.654;-115.458;2022-09-09T16:11:38;3.13;;;1.23;;
59408;SDS011;45213;32.654;-115.458;2022-09-09T16:14:06;5.30;;;1.60;;
59408;SDS011;45213;32.654;-115.458;2022-09-09T16:16:34;7.32;;;1.88;;
59408;SDS011;45213;32.654;-115.458;2022-09-09T16:19:08;6.40;;;1.38;;
59408;SDS011;45213;32.654;-115.458;2022-09-09T16:21:38;3.75;;;1.40;;
59408;SDS011;45213;32.654;-115.458;2022-09-09T16:24:11;5.03;;;1.42;;
59408;SDS011;45213;32.654;-115.458;2022-09-09T16:26:40;3.20;;;1.20;;
59408;SDS011;45213;32.654;-115.458;2022-09-09T16:31:37;6.65;;;1.50;;
59408;SDS011;45213;32.654;-115.458;2022-09-09T16:34:06;4.30;;;1.30;;
59408;SDS011;45213;32.654;-115.458;2022-09-09T16:36:36;2.05;;;1.17;;
59408;SDS011;45213;32.654;-115.458;2022-09-09T16:39:13;4.00;;;1.77;;
59408;SDS011;45213;32.654;-115.458;2022-09-09T16:41:49;4.97;;;1.80;;
59408;SDS011;45213;32.654;-115.458;2022-09-09T16:44:16;7.18;;;1.85;;
59408;SDS011;45213;32.654;-115.458;2022-09-09T16:46:48;5.70;;;1.63;;
59408;SDS011;45213;32.654;-115.458;2022-09-09T16:49:17;5.25;;;1.15;;
59408;SDS011;45213;32.654;-115.458;2022-09-09T16:51:48;4.25;;;1.55;;
59408;SDS011;45213;32.654;-115.458;2022-09-09T16:54:18;7.65;;;1.50;;
59408;SDS011;45213;32.654;-115.458;2022-09-09T16:56:51;5.72;;;1.10;;
59408;SDS011;45213;32.654;-115.458;2022-09-09T16:59:20;4.13;;;1.35;;
59408;SDS011;45213;32.654;-115.458;2022-09-09T17:01:50;6.95;;;1.65;;